sensor_id;sensor_type;location;lat;lon;timestamp;P1;durP1;ratioP1;P2;durP2;ratioP2
38318;SDS011;24121;53.536;10.224;2023-04-15T15:45:14;18.90;;;16.90;;
38318;SDS011;24121;53.536;10.224;2023-04-15T15:47:39;13.57;;;10.98;;
38318;SDS011;24121;53.536;10.224;2023-04-15T15:50:05;13.75;;;12.23;;
38318;SDS011;24121;53.536;10.224;2023-04-15T15:52:31;15.55;;;11.77;;
38318;SDS011;24121;53.536;10.224;2023-04-15T15:54:56;14.55;;;12.25;;
38318;SDS011;24121;53.536;10.224;2023-04-15T15:57:22;14.18;;;12.63;;
38318;SDS011;24121;53.536;10.224;2023-04-15T15:59:47;15.77;;;12.55;;
38318;SDS011;24121;53.536;10.224;2023-04-15T16:02:12;18.65;;;16.05;;
38318;SDS011;24121;53.536;10.224;2023-04-15T16:04:38;15.95;;;13.55;;
38318;SDS011;24121;53.536;10.224;2023-04-15T16:07:03;16.65;;;14.38;;
38318;SDS011;24121;53.536;10.224;2023-04-15T16:09:29;21.48;;;19.02;;
38318;SDS011;24121;53.536;10.224;2023-04-15T16:11:55;17.20;;;13.85;;
38318;SDS011;24121;53.536;10.224;2023-04-15T16:14:21;16.42;;;13.57;;
38318;SDS011;24121;53.536;10.224;2023-04-15T16:16:48;19.13;;;14.07;;
38318;SDS011;24121;53.536;10.224;2023-04-15T16:19:14;16.23;;;14.45;;
38318;SDS011;24121;53.536;10.224;2023-04-15T16:21:39;18.90;;;15.43;;
38318;SDS011;24121;53.536;10.224;2023-04-15T16:24:05;19.90;;;16.55;;
38318;SDS011;24121;53.536;10.224;2023-04-15T16:26:30;19.13;;;16.83;;
38318;SDS011;24121;53.536;10.224;2023-04-15T16:28:55;17.33;;;15.07;;
38318;SDS011;24121;53.536;10.224;2023-04-15T16:31:21;20.90;;;15.65;;
38318;SDS011;24121;53.536;10.224;2023-04-15T16:33:46;18.77;;;14.18;;
38318;SDS011;24121;53.536;10.224;2023-04-15T16:36:11;19.52;;;16.63;;
38318;SDS011;24121;53.536;10.224;2023-04-15T16:38:37;20.90;;;16.30;;
38318;SDS011;24121;53.536;10.224;2023-04-15T16:41:02;20.90;;;17.73;;
38318;SDS011;24121;53.536;10.224;2023-04-15T16:43:27;20.45;;;16.65;;
38318;SDS011;24121;53.536;10.224;2023-04-15T16:45:53;20.25;;;17.63;;
38318;SDS011;24121;53.536;10.224;2023-04-15T16:48:19;23.83;;;17.25;;
38318;SDS011;24121;53.536;10.224;2023-04-15T16:50:44;21.77;;;17.52;;
38318;SDS011;24121;53.536;10.224;2023-04-15T16:53:10;22.13;;;17.50;;
38318;SDS011;24121;53.536;10.224;2023-04-15T16:55:35;21.35;;;17.90;;
38318;SDS011;24121;53.536;10.224;2023-04-15T16:58:00;21.02;;;18.33;;
38318;SDS011;24121;53.536;10.224;2023-04-15T17:00:26;23.98;;;17.23;;
38318;SDS011;24121;53.536;10.224;2023-04-15T17:02:51;20.73;;;16.50;;
38318;SDS011;24121;53.536;10.224;2023-04-15T17:05:17;23.75;;;18.73;;
38318;SDS011;24121;53.536;10.224;2023-04-15T17:07:42;20.17;;;16.08;;
38318;SDS011;24121;53.536;10.224;2023-04-15T17:10:07;24.33;;;19.00;;
38318;SDS011;24121;53.536;10.224;2023-04-15T17:12:33;25.63;;;18.13;;
38318;SDS011;24121;53.536;10.224;2023-04-15T17:14:58;23.38;;;17.52;;
38318;SDS011;24121;53.536;10.224;2023-04-15T17:17:24;22.60;;;18.38;;
38318;SDS011;24121;53.536;10.224;2023-04-15T17:19:49;23.60;;;18.35;;
38318;SDS011;24121;53.536;10.224;2023-04-15T17:22:14;25.27;;;19.65;;
38318;SDS011;24121;53.536;10.224;2023-04-15T17:24:40;25.83;;;20.15;;
38318;SDS011;24121;53.536;10.224;2023-04-15T17:27:06;25.42;;;18.92;;
38318;SDS011;24121;53.536;10.224;2023-04-15T17:29:31;21.80;;;18.98;;
38318;SDS011;24121;53.536;10.224;2023-04-15T17:31:57;26.65;;;21.20;;
38318;SDS011;24121;53.536;10.224;2023-04-15T17:34:22;21.67;;;16.92;;
38318;SDS011;24121;53.536;10.224;2023-04-15T17:36:47;23.67;;;18.45;;
38318;SDS011;24121;53.536;10.224;2023-04-15T17:39:15;23.65;;;16.75;;
38318;SDS011;24121;53.536;10.224;2023-04-15T17:41:40;21.67;;;18.25;;
38318;SDS011;24121;53.536;10.224;2023-04-15T17:44:05;22.45;;;19.38;;
38318;SDS011;24121;53.536;10.224;2023-04-15T17:46:31;22.88;;;16.60;;
38318;SDS011;24121;53.536;10.224;2023-04-15T17:48:56;25.42;;;17.27;;
38318;SDS011;24121;53.536;10.224;2023-04-15T17:51:22;23.00;;;17.50;;
38318;SDS011;24121;53.536;10.224;2023-04-15T17:53:47;24.60;;;16.67;;
38318;SDS011;24121;53.536;10.224;2023-04-15T17:56:12;22.60;;;18.67;;
38318;SDS011;24121;53.536;10.224;2023-04-15T17:58:38;23.13;;;16.83;;
38318;SDS011;24121;53.536;10.224;2023-04-15T18:01:03;22.77;;;17.08;;
38318;SDS011;24121;53.536;10.224;2023-04-15T18:03:28;26.08;;;20.25;;
38318;SDS011;24121;53.536;10.224;2023-04-15T18:05:54;20.70;;;15.73;;
38318;SDS011;24121;53.536;10.224;2023-04-15T18:08:19;26.73;;;18.20;;
38318;SDS011;24121;53.536;10.224;2023-04-15T18:10:45;25.48;;;18.98;;
38318;SDS011;24121;53.536;10.224;2023-04-15T18:13:10;24.23;;;17.90;;
38318;SDS011;24121;53.536;10.224;2023-04-15T18:15:35;25.60;;;17.98;;
38318;SDS011;24121;53.536;10.224;2023-04-15T18:18:01;27.23;;;18.65;;
38318;SDS011;24121;53.536;10.224;2023-04-15T18:20:27;26.42;;;17.55;;
38318;SDS011;24121;53.536;10.224;2023-04-15T18:22:53;24.60;;;18.67;;
38318;SDS011;24121;53.536;10.224;2023-04-15T18:25:18;18.63;;;14.52;;
38318;SDS011;24121;53.536;10.224;2023-04-15T18:27:43;24.02;;;16.42;;
38318;SDS011;24121;53.536;10.224;2023-04-15T18:30:10;24.40;;;18.33;;
38318;SDS011;24121;53.536;10.224;2023-04-15T18:32:36;25.30;;;17.60;;
38318;SDS011;24121;53.536;10.224;2023-04-15T18:35:02;23.63;;;17.95;;
38318;SDS011;24121;53.536;10.224;2023-04-15T18:37:28;26.05;;;18.13;;
38318;SDS011;24121;53.536;10.224;2023-04-15T18:39:53;24.65;;;17.38;;
38318;SDS011;24121;53.536;10.224;2023-04-15T18:42:19;25.73;;;18.00;;
38318;SDS011;24121;53.536;10.224;2023-04-15T18:44:45;24.95;;;17.67;;
38318;SDS011;24121;53.536;10.224;2023-04-15T18:47:10;25.40;;;16.88;;
38318;SDS011;24121;53.536;10.224;2023-04-15T18:49:36;25.25;;;17.45;;
38318;SDS011;24121;53.536;10.224;2023-04-15T18:52:01;23.35;;;16.92;;
38318;SDS011;24121;53.536;10.224;2023-04-15T18:54:28;28.20;;;19.25;;
38318;SDS011;24121;53.536;10.224;2023-04-15T18:56:53;25.52;;;18.50;;
38318;SDS011;24121;53.536;10.224;2023-04-15T18:59:18;26.13;;;18.38;;
38318;SDS011;24121;53.536;10.224;2023-04-15T19:01:43;27.05;;;19.13;;
38318;SDS011;24121;53.536;10.224;2023-04-15T19:04:09;25.90;;;19.38;;
38318;SDS011;24121;53.536;10.224;2023-04-15T19:06:35;26.98;;;18.90;;
38318;SDS011;24121;53.536;10.224;2023-04-15T19:09:00;25.02;;;16.75;;
38318;SDS011;24121;53.536;10.224;2023-04-15T19:11:26;23.40;;;17.83;;
38318;SDS011;24121;53.536;10.224;2023-04-15T19:13:51;25.67;;;18.70;;
38318;SDS011;24121;53.536;10.224;2023-04-15T19:16:17;25.98;;;17.55;;
38318;SDS011;24121;53.536;10.224;2023-04-15T19:18:42;25.42;;;18.98;;
38318;SDS011;24121;53.536;10.224;2023-04-15T19:21:08;32.15;;;20.95;;
38318;SDS011;24121;53.536;10.224;2023-04-15T19:23:33;28.35;;;19.83;;
38318;SDS011;24121;53.536;10.224;2023-04-15T19:25:59;22.35;;;17.45;;
38318;SDS011;24121;53.536;10.224;2023-04-15T19:28:24;26.70;;;19.95;;
38318;SDS011;24121;53.536;10.224;2023-04-15T19:30:52;27.08;;;18.00;;
38318;SDS011;24121;53.536;10.224;2023-04-15T19:33:17;27.30;;;19.27;;
38318;SDS011;24121;53.536;10.224;2023-04-15T19:35:42;27.05;;;18.38;;
38318;SDS011;24121;53.536;10.224;2023-04-15T19:38:08;29.30;;;19.48;;
38318;SDS011;24121;53.536;10.224;2023-04-15T19:40:33;25.63;;;17.65;;
38318;SDS011;24121;53.536;10.224;2023-04-15T19:42:58;25.42;;;17.45;;
38318;SDS011;24121;53.536;10.224;2023-04-15T19:45:24;26.17;;;18.33;;
38318;SDS011;24121;53.536;10.224;2023-04-15T19:47:49;30.25;;;19.63;;
38318;SDS011;24121;53.536;10.224;2023-04-15T19:50:14;31.67;;;19.38;;
38318;SDS011;24121;53.536;10.224;2023-04-15T19:52:40;28.45;;;20.00;;
38318;SDS011;24121;53.536;10.224;2023-04-15T19:55:06;27.55;;;18.83;;
38318;SDS011;24121;53.536;10.224;2023-04-15T19:57:31;26.35;;;18.52;;
38318;SDS011;24121;53.536;10.224;2023-04-15T19:59:57;28.75;;;18.08;;
38318;SDS011;24121;53.536;10.224;2023-04-15T20:02:23;26.15;;;15.88;;
38318;SDS011;24121;53.536;10.224;2023-04-15T20:04:48;26.77;;;18.60;;
38318;SDS011;24121;53.536;10.224;2023-04-15T20:07:13;25.73;;;18.13;;
38318;SDS011;24121;53.536;10.224;2023-04-15T20:09:39;29.15;;;18.02;;
38318;SDS011;24121;53.536;10.224;2023-04-15T20:12:07;25.77;;;18.85;;
38318;SDS011;24121;53.536;10.224;2023-04-15T20:14:32;26.25;;;19.10;;
38318;SDS011;24121;53.536;10.224;2023-04-15T20:16:58;24.70;;;18.02;;
38318;SDS011;24121;53.536;10.224;2023-04-15T20:19:23;24.42;;;18.17;;
38318;SDS011;24121;53.536;10.224;2023-04-15T20:21:48;25.10;;;18.83;;
38318;SDS011;24121;53.536;10.224;2023-04-15T20:24:14;24.48;;;18.75;;
38318;SDS011;24121;53.536;10.224;2023-04-15T20:26:39;24.92;;;16.35;;
38318;SDS011;24121;53.536;10.224;2023-04-15T20:29:05;27.70;;;18.15;;
38318;SDS011;24121;53.536;10.224;2023-04-15T20:31:30;29.13;;;17.33;;
38318;SDS011;24121;53.536;10.224;2023-04-15T20:33:55;23.63;;;16.75;;
38318;SDS011;24121;53.536;10.224;2023-04-15T20:36:21;23.88;;;17.58;;
38318;SDS011;24121;53.536;10.224;2023-04-15T20:38:46;27.10;;;17.33;;
38318;SDS011;24121;53.536;10.224;2023-04-15T20:41:11;23.10;;;17.90;;
38318;SDS011;24121;53.536;10.224;2023-04-15T20:43:39;25.50;;;18.30;;
38318;SDS011;24121;53.536;10.224;2023-04-15T20:46:04;25.65;;;17.88;;
38318;SDS011;24121;53.536;10.224;2023-04-15T20:48:30;28.33;;;19.05;;
38318;SDS011;24121;53.536;10.224;2023-04-15T20:50:55;26.95;;;17.77;;
38318;SDS011;24121;53.536;10.224;2023-04-15T20:53:20;25.02;;;16.70;;
38318;SDS011;24121;53.536;10.224;2023-04-15T20:55:46;25.33;;;16.83;;
38318;SDS011;24121;53.536;10.224;2023-04-15T20:58:11;24.83;;;18.27;;
38318;SDS011;24121;53.536;10.224;2023-04-15T21:00:37;27.85;;;19.45;;
38318;SDS011;24121;53.536;10.224;2023-04-15T21:03:03;29.15;;;19.30;;
38318;SDS011;24121;53.536;10.224;2023-04-15T21:05:28;26.73;;;19.90;;
38318;SDS011;24121;53.536;10.224;2023-04-15T21:07:53;26.95;;;18.88;;
38318;SDS011;24121;53.536;10.224;2023-04-15T21:10:19;26.67;;;18.65;;
38318;SDS011;24121;53.536;10.224;2023-04-15T21:12:44;28.85;;;19.75;;
38318;SDS011;24121;53.536;10.224;2023-04-15T21:15:10;29.08;;;20.70;;
38318;SDS011;24121;53.536;10.224;2023-04-15T21:17:35;25.02;;;19.42;;
38318;SDS011;24121;53.536;10.224;2023-04-15T21:20:01;35.40;;;23.73;;
38318;SDS011;24121;53.536;10.224;2023-04-15T21:22:26;32.45;;;20.85;;
38318;SDS011;24121;53.536;10.224;2023-04-15T21:24:51;29.67;;;20.27;;
38318;SDS011;24121;53.536;10.224;2023-04-15T21:27:17;29.73;;;17.95;;
38318;SDS011;24121;53.536;10.224;2023-04-15T21:29:42;26.23;;;16.58;;
38318;SDS011;24121;53.536;10.224;2023-04-15T21:32:07;31.58;;;21.98;;
38318;SDS011;24121;53.536;10.224;2023-04-15T21:34:33;29.65;;;21.55;;
38318;SDS011;24121;53.536;10.224;2023-04-15T21:36:58;27.17;;;18.73;;
38318;SDS011;24121;53.536;10.224;2023-04-15T21:39:23;25.85;;;17.15;;
38318;SDS011;24121;53.536;10.224;2023-04-15T21:41:49;27.63;;;20.00;;
38318;SDS011;24121;53.536;10.224;2023-04-15T21:44:14;28.50;;;20.65;;
38318;SDS011;24121;53.536;10.224;2023-04-15T21:46:39;30.23;;;20.35;;
38318;SDS011;24121;53.536;10.224;2023-04-15T21:49:05;25.25;;;18.70;;
38318;SDS011;24121;53.536;10.224;2023-04-15T21:51:30;28.25;;;20.40;;
38318;SDS011;24121;53.536;10.224;2023-04-15T21:53:56;24.85;;;17.77;;
38318;SDS011;24121;53.536;10.224;2023-04-15T21:56:21;31.67;;;21.17;;
38318;SDS011;24121;53.536;10.224;2023-04-15T21:58:48;27.27;;;19.30;;
38318;SDS011;24121;53.536;10.224;2023-04-15T22:01:13;26.52;;;18.73;;
38318;SDS011;24121;53.536;10.224;2023-04-15T22:03:39;28.55;;;20.08;;
38318;SDS011;24121;53.536;10.224;2023-04-15T22:06:04;32.40;;;21.20;;
38318;SDS011;24121;53.536;10.224;2023-04-15T22:08:30;26.27;;;18.17;;
38318;SDS011;24121;53.536;10.224;2023-04-15T22:10:55;26.70;;;19.90;;
38318;SDS011;24121;53.536;10.224;2023-04-15T22:13:21;28.02;;;20.13;;
38318;SDS011;24121;53.536;10.224;2023-04-15T22:15:46;31.80;;;20.00;;
38318;SDS011;24121;53.536;10.224;2023-04-15T22:18:12;27.55;;;19.48;;
38318;SDS011;24121;53.536;10.224;2023-04-15T22:20:37;29.33;;;20.15;;
38318;SDS011;24121;53.536;10.224;2023-04-15T22:23:03;28.55;;;19.73;;
38318;SDS011;24121;53.536;10.224;2023-04-15T22:25:32;28.65;;;19.52;;
38318;SDS011;24121;53.536;10.224;2023-04-15T22:27:57;31.83;;;20.80;;
38318;SDS011;24121;53.536;10.224;2023-04-15T22:30:23;27.20;;;19.35;;
38318;SDS011;24121;53.536;10.224;2023-04-15T22:32:48;26.52;;;19.27;;
38318;SDS011;24121;53.536;10.224;2023-04-15T22:35:13;24.65;;;18.08;;
38318;SDS011;24121;53.536;10.224;2023-04-15T22:37:39;27.15;;;19.20;;
38318;SDS011;24121;53.536;10.224;2023-04-15T22:40:04;29.65;;;17.27;;
38318;SDS011;24121;53.536;10.224;2023-04-15T22:42:30;27.67;;;17.42;;
38318;SDS011;24121;53.536;10.224;2023-04-15T22:44:55;26.70;;;18.75;;
38318;SDS011;24121;53.536;10.224;2023-04-15T22:47:21;24.88;;;18.05;;
38318;SDS011;24121;53.536;10.224;2023-04-15T22:49:46;24.17;;;16.42;;
38318;SDS011;24121;53.536;10.224;2023-04-15T22:52:11;29.05;;;19.88;;
38318;SDS011;24121;53.536;10.224;2023-04-15T22:54:37;27.40;;;16.98;;
38318;SDS011;24121;53.536;10.224;2023-04-15T22:57:02;27.88;;;20.50;;
38318;SDS011;24121;53.536;10.224;2023-04-15T22:59:27;27.08;;;19.00;;
38318;SDS011;24121;53.536;10.224;2023-04-15T23:01:52;30.05;;;17.00;;
38318;SDS011;24121;53.536;10.224;2023-04-15T23:04:18;28.92;;;19.70;;
38318;SDS011;24121;53.536;10.224;2023-04-15T23:06:44;27.13;;;18.10;;
38318;SDS011;24121;53.536;10.224;2023-04-15T23:09:09;26.90;;;19.38;;
38318;SDS011;24121;53.536;10.224;2023-04-15T23:11:34;26.23;;;19.30;;
38318;SDS011;24121;53.536;10.224;2023-04-15T23:14:00;27.73;;;18.90;;
38318;SDS011;24121;53.536;10.224;2023-04-15T23:16:25;28.67;;;20.45;;
38318;SDS011;24121;53.536;10.224;2023-04-15T23:18:51;30.73;;;19.10;;
38318;SDS011;24121;53.536;10.224;2023-04-15T23:21:16;29.23;;;20.23;;
38318;SDS011;24121;53.536;10.224;2023-04-15T23:23:41;29.38;;;19.17;;
38318;SDS011;24121;53.536;10.224;2023-04-15T23:26:07;32.75;;;20.88;;
38318;SDS011;24121;53.536;10.224;2023-04-15T23:28:32;27.30;;;19.92;;
38318;SDS011;24121;53.536;10.224;2023-04-15T23:30:57;29.05;;;19.17;;
38318;SDS011;24121;53.536;10.224;2023-04-15T23:33:23;27.20;;;19.55;;
38318;SDS011;24121;53.536;10.224;2023-04-15T23:35:49;32.38;;;22.65;;
38318;SDS011;24121;53.536;10.224;2023-04-15T23:38:14;31.58;;;20.08;;
38318;SDS011;24121;53.536;10.224;2023-04-15T23:40:39;28.75;;;20.30;;
38318;SDS011;24121;53.536;10.224;2023-04-15T23:43:05;32.95;;;20.83;;
38318;SDS011;24121;53.536;10.224;2023-04-15T23:45:30;27.88;;;20.20;;
38318;SDS011;24121;53.536;10.224;2023-04-15T23:47:55;29.85;;;19.73;;
38318;SDS011;24121;53.536;10.224;2023-04-15T23:50:21;31.42;;;20.63;;
38318;SDS011;24121;53.536;10.224;2023-04-15T23:52:46;24.00;;;16.35;;
38318;SDS011;24121;53.536;10.224;2023-04-15T23:55:11;30.75;;;19.20;;
38318;SDS011;24121;53.536;10.224;2023-04-15T23:57:37;25.90;;;17.52;;
